Terminal Aerodrome Forecast
Issued by NWS

Home | Current Version | Previous Version | Text Only | Print | Product List | Glossary Off
Versions: 1 2 3 4 5 6 7 8 9 10 11 12 13 14 15 16

000
FTUS43 KIWX 151100
TAFSBN
TAF
KSBN 151120Z 1512/1612 35012G18KT P6SM -SHSN BKN025
     FM151400 33013G21KT P6SM BKN040
     FM152200 30006KT P6SM FEW070
     FM160300 VRB03KT P6SM SCT250=

USA.gov is the U.S. government's official web portal to all federal, state and local government web resources and services.